createdAt,value
2022-12-18T00:00:54.516Z,22.02
2022-12-18T00:02:56.928Z,22.02
2022-12-18T00:04:58.598Z,21.23
2022-12-18T00:07:01.544Z,22.23
2022-12-18T00:09:04.328Z,26.70
2022-12-18T00:11:07.018Z,24.42
2022-12-18T00:13:10.173Z,25.15
2022-12-18T00:15:12.071Z,22.42
2022-12-18T00:17:13.670Z,30.77
2022-12-18T00:19:15.913Z,26.40
2022-12-18T00:21:17.851Z,29.38
2022-12-18T00:23:20.742Z,30.52
2022-12-18T00:25:22.379Z,30.88
2022-12-18T00:27:23.927Z,29.05
2022-12-18T00:29:25.558Z,29.45
2022-12-18T00:31:27.272Z,29.88
2022-12-18T00:33:29.207Z,27.38
2022-12-18T00:35:30.717Z,28.52
2022-12-18T00:37:33.885Z,25.13
2022-12-18T00:39:36.969Z,28.88
2022-12-18T00:41:38.704Z,28.25
2022-12-18T00:43:41.139Z,29.38
2022-12-18T00:45:42.842Z,28.23
2022-12-18T00:47:44.475Z,32.13
2022-12-18T00:49:46.016Z,32.60
2022-12-18T00:51:48.228Z,28.63
2022-12-18T00:53:49.884Z,30.73
2022-12-18T00:55:52.842Z,30.45
2022-12-18T00:57:54.446Z,26.15
2022-12-18T00:59:56.076Z,27.08
2022-12-18T01:01:57.745Z,29.77
2022-12-18T01:04:00.810Z,31.25
2022-12-18T01:06:07.333Z,30.52
2022-12-18T01:08:08.996Z,27.88
2022-12-18T01:10:12.315Z,26.52
2022-12-18T01:12:15.409Z,28.02
2022-12-18T01:14:17.014Z,30.55
2022-12-18T01:16:18.932Z,27.30
2022-12-18T01:18:20.514Z,31.60
2022-12-18T01:20:22.059Z,28.05
2022-12-18T01:22:23.767Z,30.55
2022-12-18T01:24:25.403Z,22.95
2022-12-18T01:26:27.823Z,30.05
2022-12-18T01:28:30.764Z,28.35
2022-12-18T01:30:32.312Z,29.77
2022-12-18T01:32:34.073Z,25.50
2022-12-18T01:34:36.329Z,29.38
2022-12-18T01:36:39.479Z,25.38
2022-12-18T01:38:44.074Z,24.77
2022-12-18T01:40:45.602Z,30.25
2022-12-18T01:42:53.753Z,25.55
2022-12-18T01:47:00.535Z,26.77
2022-12-18T01:51:05.626Z,29.15
2022-12-18T01:53:13.729Z,29.05
2022-12-18T01:55:19.299Z,24.20
2022-12-18T01:57:21.168Z,28.58
2022-12-18T02:01:26.942Z,28.33
2022-12-18T02:03:28.599Z,30.67
2022-12-18T02:05:41.084Z,33.22
2022-12-18T02:07:52.000Z,34.92
2022-12-18T02:09:59.962Z,34.42
2022-12-18T02:12:06.709Z,28.75
2022-12-18T02:14:19.031Z,33.80
2022-12-18T02:16:31.139Z,26.75
2022-12-18T02:18:38.155Z,29.48
2022-12-18T02:20:46.094Z,30.35
2022-12-18T02:23:05.420Z,32.28
2022-12-18T02:25:19.647Z,31.73
2022-12-18T02:27:22.768Z,34.30
2022-12-18T02:29:27.000Z,31.90
2022-12-18T02:31:32.316Z,29.17
2022-12-18T02:33:36.567Z,30.75
2022-12-18T02:35:41.017Z,28.65
2022-12-18T02:37:44.839Z,25.50
2022-12-18T02:39:49.643Z,34.45
2022-12-18T02:41:51.695Z,36.70
2022-12-18T02:43:57.407Z,32.65
2022-12-18T02:46:00.664Z,29.38
2022-12-18T02:48:02.348Z,26.90
2022-12-18T02:50:10.877Z,24.40
2022-12-18T02:52:25.723Z,27.75
2022-12-18T02:54:56.363Z,30.63
2022-12-18T02:57:05.380Z,30.52
2022-12-18T02:59:14.291Z,32.45
2022-12-18T03:01:20.702Z,31.23
2022-12-18T03:03:27.971Z,28.38
2022-12-18T03:05:34.331Z,27.90
2022-12-18T03:07:39.890Z,31.13
2022-12-18T03:09:47.282Z,31.30
2022-12-18T03:11:55.573Z,32.95
2022-12-18T03:13:59.409Z,37.88
2022-12-18T03:16:04.311Z,37.03
2022-12-18T03:18:11.715Z,34.47
2022-12-18T03:20:20.930Z,34.55
2022-12-18T03:22:24.831Z,34.58
2022-12-18T03:24:28.814Z,34.65
2022-12-18T03:26:31.018Z,38.45
2022-12-18T03:28:37.830Z,34.78
2022-12-18T03:30:42.580Z,43.53
2022-12-18T03:32:51.488Z,37.65
2022-12-18T03:34:56.822Z,35.95
2022-12-18T03:37:03.668Z,39.67
2022-12-18T03:39:05.377Z,31.63
2022-12-18T03:41:15.684Z,34.75
2022-12-18T03:43:26.488Z,36.65
2022-12-18T03:45:35.197Z,44.97
2022-12-18T03:47:48.738Z,40.10
2022-12-18T03:49:58.871Z,37.78
2022-12-18T03:52:05.611Z,40.28
2022-12-18T03:54:09.594Z,45.90
2022-12-18T03:56:14.392Z,55.28
2022-12-18T03:58:20.245Z,42.42
2022-12-18T04:00:21.976Z,48.05
2022-12-18T04:02:25.408Z,53.03
2022-12-18T04:04:29.348Z,49.28
2022-12-18T04:06:32.950Z,51.58
2022-12-18T04:08:35.420Z,51.60
2022-12-18T04:10:37.395Z,52.95
2022-12-18T04:12:39.114Z,52.65
2022-12-18T04:14:40.874Z,48.22
2022-12-18T04:16:42.373Z,52.13
2022-12-18T04:18:43.896Z,52.83
2022-12-18T04:20:45.498Z,47.25
2022-12-18T04:22:49.081Z,44.13
2022-12-18T04:24:50.616Z,50.75
2022-12-18T04:26:52.221Z,41.58
2022-12-18T04:28:53.877Z,38.80
2022-12-18T04:30:55.502Z,39.58
2022-12-18T04:32:57.203Z,35.13
2022-12-18T04:34:58.725Z,38.25
2022-12-18T04:37:00.300Z,45.10
2022-12-18T04:39:03.407Z,39.17
2022-12-18T04:41:05.144Z,36.63
2022-12-18T04:43:06.749Z,34.72
2022-12-18T04:45:09.333Z,34.72
2022-12-18T04:47:10.884Z,41.70
2022-12-18T04:49:12.415Z,41.75
2022-12-18T04:51:14.258Z,33.53
2022-12-18T04:55:18.582Z,32.28
2022-12-18T04:57:20.101Z,39.92
2022-12-18T04:59:21.690Z,38.20
2022-12-18T05:01:23.343Z,39.58
2022-12-18T05:03:25.087Z,32.03
2022-12-18T05:05:26.812Z,40.88
2022-12-18T05:07:28.387Z,34.88
2022-12-18T05:09:30.514Z,38.08
2022-12-18T05:11:33.555Z,42.33
2022-12-18T05:13:36.460Z,37.47
2022-12-18T05:15:38.272Z,34.60
2022-12-18T05:17:39.841Z,42.88
2022-12-18T05:19:41.525Z,42.85
2022-12-18T05:21:43.092Z,47.20
2022-12-18T05:23:44.934Z,43.28
2022-12-18T05:25:48.756Z,41.08
2022-12-18T05:27:51.799Z,40.60
2022-12-18T05:29:53.332Z,40.88
2022-12-18T05:31:54.926Z,50.05
2022-12-18T05:33:56.527Z,49.67
2022-12-18T05:35:59.923Z,43.45
2022-12-18T05:38:01.556Z,47.40
2022-12-18T05:40:03.534Z,41.80
2022-12-18T05:42:05.124Z,48.05
2022-12-18T05:44:08.013Z,52.20
2022-12-18T05:46:13.784Z,49.88
2022-12-18T05:48:15.586Z,47.88
2022-12-18T05:50:22.998Z,47.05
2022-12-18T05:52:24.816Z,45.10
2022-12-18T05:56:29.455Z,50.47
2022-12-18T05:58:31.925Z,43.60
2022-12-18T06:00:36.943Z,43.38
2022-12-18T06:02:38.602Z,40.92
2022-12-18T06:04:40.165Z,46.42
2022-12-18T06:06:41.740Z,48.05
2022-12-18T06:08:46.380Z,48.60
2022-12-18T06:10:51.812Z,48.97
2022-12-18T06:12:53.333Z,45.05
2022-12-18T06:14:54.868Z,45.20
2022-12-18T06:16:57.775Z,44.42
2022-12-18T06:19:00.271Z,47.85
2022-12-18T06:21:02.123Z,53.75
2022-12-18T06:23:04.385Z,45.05
2022-12-18T06:25:07.090Z,47.28
2022-12-18T06:27:09.526Z,49.35
2022-12-18T06:29:11.071Z,46.90
2022-12-18T06:31:12.869Z,46.53
2022-12-18T06:35:17.780Z,43.83
2022-12-18T06:37:19.948Z,46.70
2022-12-18T06:39:21.527Z,43.45
2022-12-18T06:41:23.088Z,48.45
2022-12-18T06:43:24.774Z,42.42
2022-12-18T06:45:26.523Z,41.90
2022-12-18T06:47:31.794Z,42.45
2022-12-18T06:49:34.728Z,39.80
2022-12-18T06:51:36.735Z,40.13
2022-12-18T06:53:38.734Z,41.47
2022-12-18T06:55:40.535Z,41.13
2022-12-18T06:57:43.114Z,34.80
2022-12-18T06:59:44.638Z,36.10
2022-12-18T07:01:46.329Z,37.40
2022-12-18T07:03:52.028Z,29.95
2022-12-18T07:05:54.991Z,37.95
2022-12-18T07:07:56.650Z,32.33
2022-12-18T07:09:58.143Z,38.40
2022-12-18T07:11:59.837Z,33.72
2022-12-18T07:14:01.375Z,31.05
2022-12-18T07:16:17.117Z,35.03
2022-12-18T07:18:20.267Z,27.83
2022-12-18T07:20:21.767Z,28.67
2022-12-18T07:22:26.071Z,28.83
2022-12-18T07:24:27.706Z,29.73
2022-12-18T07:26:29.227Z,28.48
2022-12-18T07:28:30.889Z,31.58
2022-12-18T07:30:32.487Z,26.83
2022-12-18T07:32:33.950Z,32.33
2022-12-18T07:34:35.713Z,28.50
2022-12-18T07:36:37.540Z,27.98
2022-12-18T07:38:40.781Z,34.28
2022-12-18T07:40:42.274Z,27.42
2022-12-18T07:42:43.863Z,33.17
2022-12-18T07:44:45.379Z,30.13
2022-12-18T07:46:46.902Z,27.90
2022-12-18T07:48:49.273Z,35.67
2022-12-18T07:50:51.774Z,32.45
2022-12-18T07:52:53.293Z,27.83
2022-12-18T07:54:56.175Z,31.10
2022-12-18T07:56:57.676Z,30.85
2022-12-18T07:59:00.110Z,32.03
2022-12-18T08:01:06.236Z,33.75
2022-12-18T08:03:07.929Z,31.67
2022-12-18T08:05:09.921Z,29.63
2022-12-18T08:07:11.425Z,31.45
2022-12-18T08:09:13.068Z,31.00
2022-12-18T08:11:15.960Z,32.30
2022-12-18T08:13:17.783Z,31.30
2022-12-18T08:17:21.067Z,35.40
2022-12-18T08:19:22.667Z,34.80
2022-12-18T08:21:26.407Z,30.38
2022-12-18T08:23:39.299Z,39.28
2022-12-18T08:25:43.858Z,38.65
2022-12-18T08:27:46.737Z,34.78
2022-12-18T08:29:48.239Z,36.63
2022-12-18T08:31:49.875Z,32.72
2022-12-18T08:33:52.576Z,27.55
2022-12-18T08:35:54.107Z,33.20
2022-12-18T08:37:55.657Z,33.05
2022-12-18T08:39:57.301Z,29.67
2022-12-18T08:41:58.969Z,36.80
2022-12-18T08:44:02.181Z,29.92
2022-12-18T08:46:03.900Z,30.55
2022-12-18T08:48:05.974Z,27.50
2022-12-18T08:50:08.083Z,32.20
2022-12-18T08:52:09.626Z,30.60
2022-12-18T08:54:12.921Z,31.95
2022-12-18T08:56:15.433Z,27.35
2022-12-18T08:58:17.005Z,28.77
2022-12-18T09:00:20.165Z,34.78
2022-12-18T09:02:21.912Z,29.52
2022-12-18T09:06:25.152Z,30.60
2022-12-18T09:08:26.687Z,32.58
2022-12-18T09:10:28.434Z,26.92
2022-12-18T09:12:30.224Z,23.25
2022-12-18T09:16:35.413Z,29.05
2022-12-18T09:18:37.304Z,28.05
2022-12-18T09:20:39.759Z,25.75
2022-12-18T09:22:41.640Z,31.02
2022-12-18T09:24:43.201Z,31.33
2022-12-18T09:26:47.411Z,30.05
2022-12-18T09:28:49.410Z,28.15
2022-12-18T09:32:54.317Z,30.83
2022-12-18T09:34:55.929Z,23.88
2022-12-18T09:36:57.790Z,28.52
2022-12-18T09:39:01.665Z,28.67
2022-12-18T09:41:26.770Z,29.33
2022-12-18T09:43:34.210Z,27.08
2022-12-18T09:45:41.776Z,30.30
2022-12-18T09:47:53.451Z,20.50
2022-12-18T09:50:02.026Z,25.95
2022-12-18T09:52:09.594Z,27.75
2022-12-18T09:54:18.555Z,22.90
2022-12-18T09:56:22.268Z,31.55
2022-12-18T09:58:30.488Z,26.55
2022-12-18T10:00:32.100Z,26.23
2022-12-18T10:02:33.827Z,28.60
2022-12-18T10:06:45.702Z,23.25
2022-12-18T10:08:55.282Z,25.23
2022-12-18T10:11:02.137Z,23.92
2022-12-18T10:13:12.973Z,30.33
2022-12-18T10:15:21.345Z,26.77
2022-12-18T10:17:36.403Z,28.23
2022-12-18T10:19:42.102Z,28.90
2022-12-18T10:21:52.278Z,29.65
2022-12-18T10:24:05.017Z,28.67
2022-12-18T10:26:08.185Z,31.92
2022-12-18T10:28:13.645Z,27.35
2022-12-18T10:30:23.465Z,27.88
2022-12-18T10:32:27.240Z,28.15
2022-12-18T10:34:28.817Z,35.15
2022-12-18T10:36:31.850Z,28.58
2022-12-18T10:38:35.504Z,29.92
2022-12-18T10:40:51.280Z,29.50
2022-12-18T10:43:05.347Z,34.30
2022-12-18T10:45:15.237Z,31.50
2022-12-18T10:47:20.003Z,31.23
2022-12-18T10:49:27.532Z,29.58
2022-12-18T10:51:33.750Z,29.67
2022-12-18T10:53:37.932Z,34.13
2022-12-18T10:55:45.354Z,36.13
2022-12-18T10:57:46.925Z,31.42
2022-12-18T10:59:53.386Z,28.50
2022-12-18T11:01:56.822Z,37.22
2022-12-18T11:04:08.523Z,32.38
2022-12-18T11:06:12.857Z,33.67
2022-12-18T11:08:22.215Z,31.80
2022-12-18T11:10:30.830Z,31.83
2022-12-18T11:12:32.375Z,33.67
2022-12-18T11:14:46.724Z,28.88
2022-12-18T11:17:24.200Z,34.65
2022-12-18T11:19:22.373Z,27.52
2022-12-18T11:21:24.474Z,29.25
2022-12-18T11:23:27.441Z,29.13
2022-12-18T11:25:34.654Z,30.08
2022-12-18T11:27:38.649Z,27.65
2022-12-18T11:29:46.417Z,30.17
2022-12-18T11:31:48.349Z,34.63
2022-12-18T11:36:16.566Z,34.53
2022-12-18T11:38:23.402Z,25.40
2022-12-18T11:40:31.041Z,28.20
2022-12-18T11:42:39.383Z,30.67
2022-12-18T11:44:49.150Z,32.75
2022-12-18T11:46:56.108Z,26.35
2022-12-18T11:49:02.295Z,28.20
2022-12-18T11:51:10.389Z,28.73
2022-12-18T11:53:12.863Z,30.17
2022-12-18T11:55:16.475Z,29.48
2022-12-18T11:57:32.907Z,26.77
2022-12-18T11:59:44.711Z,27.13
2022-12-18T12:01:52.585Z,30.15
2022-12-18T12:04:22.159Z,27.50
2022-12-18T12:06:32.363Z,29.02
2022-12-18T12:08:50.091Z,30.33
2022-12-18T12:11:03.140Z,27.60
2022-12-18T12:13:39.413Z,26.95
2022-12-18T12:15:55.067Z,27.52
2022-12-18T12:18:11.065Z,21.73
2022-12-18T12:20:21.219Z,29.25
2022-12-18T12:22:32.407Z,29.38
2022-12-18T12:24:46.014Z,30.27
2022-12-18T12:26:56.647Z,24.08
2022-12-18T12:29:09.205Z,27.55
2022-12-18T12:31:26.920Z,26.02
2022-12-18T12:33:38.570Z,24.98
2022-12-18T12:35:48.564Z,27.45
2022-12-18T12:38:02.456Z,28.13
2022-12-18T12:40:26.836Z,25.40
2022-12-18T12:42:33.726Z,31.55
2022-12-18T12:44:44.155Z,25.75
2022-12-18T12:46:49.521Z,26.98
2022-12-18T12:48:54.685Z,32.50
2022-12-18T12:50:57.826Z,23.67
2022-12-18T12:53:01.706Z,25.20
2022-12-18T12:55:13.082Z,21.10
2022-12-18T12:57:20.512Z,21.83
2022-12-18T12:59:32.907Z,27.35
2022-12-18T13:01:42.629Z,32.13
2022-12-18T13:04:02.362Z,28.25
2022-12-18T13:06:12.346Z,25.75
2022-12-18T13:08:24.444Z,25.40
2022-12-18T13:10:33.498Z,24.85
2022-12-18T13:12:35.413Z,27.05
2022-12-18T13:14:39.355Z,27.58
2022-12-18T13:16:41.028Z,25.98
2022-12-18T13:18:52.454Z,24.23
2022-12-18T13:21:20.330Z,26.92
2022-12-18T13:23:31.821Z,27.40
2022-12-18T13:25:36.370Z,26.90
2022-12-18T13:28:05.014Z,26.38
2022-12-18T13:30:57.751Z,22.67
2022-12-18T13:34:02.101Z,20.85
2022-12-18T13:36:14.914Z,27.15
2022-12-18T13:38:22.827Z,24.65
2022-12-18T13:40:56.620Z,26.55
2022-12-18T13:42:59.044Z,24.02
2022-12-18T13:45:01.137Z,32.92
2022-12-18T13:47:04.336Z,25.60
2022-12-18T13:49:18.310Z,29.05
2022-12-18T13:51:22.429Z,26.85
2022-12-18T13:53:27.251Z,27.88
2022-12-18T13:55:29.580Z,32.20
2022-12-18T13:57:34.016Z,30.30
2022-12-18T13:59:36.850Z,32.95
2022-12-18T14:01:43.468Z,34.83
2022-12-18T14:03:45.090Z,33.83
2022-12-18T14:05:55.935Z,32.13
2022-12-18T14:08:02.644Z,33.30
2022-12-18T14:10:42.199Z,40.65
2022-12-18T14:12:28.740Z,38.28
2022-12-18T14:14:33.566Z,40.45
2022-12-18T14:16:35.967Z,38.97
2022-12-18T14:18:45.242Z,40.80
2022-12-18T14:20:52.827Z,46.50
2022-12-18T14:22:55.422Z,41.33
2022-12-18T14:25:19.113Z,41.15
2022-12-18T14:27:24.250Z,41.95
2022-12-18T14:29:27.715Z,43.28
2022-12-18T14:31:31.979Z,41.10
2022-12-18T14:33:33.722Z,38.50
2022-12-18T14:35:37.209Z,39.60
2022-12-18T14:37:39.986Z,36.78
2022-12-18T14:39:41.678Z,32.58
2022-12-18T14:41:44.574Z,34.72
2022-12-18T14:43:47.688Z,31.50
2022-12-18T14:45:49.726Z,36.53
2022-12-18T14:47:51.424Z,35.08
2022-12-18T14:49:53.045Z,32.38
2022-12-18T14:51:56.058Z,29.95
2022-12-18T14:54:00.264Z,28.15
2022-12-18T14:56:11.183Z,27.85
2022-12-18T14:58:16.262Z,24.63
2022-12-18T15:00:20.915Z,26.60
2022-12-18T15:02:25.017Z,25.92
2022-12-18T15:04:29.344Z,24.95
2022-12-18T15:06:33.865Z,26.25
2022-12-18T15:08:37.686Z,23.48
2022-12-18T15:10:48.453Z,27.25
2022-12-18T15:12:51.246Z,24.85
2022-12-18T15:14:54.282Z,25.35
2022-12-18T15:16:57.287Z,27.95
2022-12-18T15:18:58.870Z,23.45
2022-12-18T15:21:09.294Z,23.85
2022-12-18T15:23:15.782Z,26.48
2022-12-18T15:25:30.274Z,24.20
2022-12-18T15:27:33.764Z,18.60
2022-12-18T15:29:35.341Z,22.25
2022-12-18T15:31:38.230Z,25.10
2022-12-18T15:33:41.956Z,20.65
2022-12-18T15:35:47.181Z,22.15
2022-12-18T15:37:49.597Z,23.38
2022-12-18T15:39:51.067Z,21.63
2022-12-18T15:41:52.888Z,25.95
2022-12-18T15:43:54.624Z,27.17
2022-12-18T15:45:56.251Z,22.92
2022-12-18T15:47:59.608Z,20.98
2022-12-18T15:50:01.255Z,22.85
2022-12-18T15:52:03.362Z,22.00
2022-12-18T15:54:09.880Z,23.77
2022-12-18T15:56:12.159Z,35.55
2022-12-18T15:58:14.480Z,32.30
2022-12-18T16:00:18.335Z,24.80
2022-12-18T16:02:21.012Z,20.70
2022-12-18T16:04:24.035Z,23.92
2022-12-18T16:06:25.606Z,25.92
2022-12-18T16:08:27.166Z,21.70
2022-12-18T16:10:29.251Z,25.38
2022-12-18T16:12:31.003Z,20.55
2022-12-18T16:14:33.401Z,22.77
2022-12-18T16:16:35.157Z,23.95
2022-12-18T16:18:36.723Z,23.08
2022-12-18T16:20:40.176Z,22.00
2022-12-18T16:22:42.593Z,27.20
2022-12-18T16:24:44.254Z,24.55
2022-12-18T16:26:46.243Z,24.23
2022-12-18T16:30:50.323Z,23.17
2022-12-18T16:32:51.999Z,23.38
2022-12-18T16:34:53.566Z,26.33
2022-12-18T16:37:03.339Z,24.05
2022-12-18T16:39:07.027Z,29.75
2022-12-18T16:41:18.890Z,26.65
2022-12-18T16:43:20.509Z,26.15
2022-12-18T16:45:23.420Z,23.10
2022-12-18T16:47:24.981Z,27.17
2022-12-18T16:49:26.526Z,21.95
2022-12-18T16:51:28.655Z,20.90
2022-12-18T16:53:32.722Z,24.42
2022-12-18T16:55:34.846Z,21.58
2022-12-18T16:57:36.483Z,20.75
2022-12-18T16:59:38.060Z,22.63
2022-12-18T17:01:39.963Z,21.83
2022-12-18T17:03:41.921Z,23.13
2022-12-18T17:05:51.507Z,23.48
2022-12-18T17:07:54.641Z,25.83
2022-12-18T17:09:57.607Z,24.25
2022-12-18T17:12:02.339Z,24.75
2022-12-18T17:14:07.065Z,25.33
2022-12-18T17:16:09.764Z,28.95
2022-12-18T17:18:11.479Z,28.23
2022-12-18T17:20:13.166Z,32.85
2022-12-18T17:22:14.751Z,27.02
2022-12-18T17:24:16.655Z,24.25
2022-12-18T17:26:20.524Z,25.70
2022-12-18T17:28:22.104Z,30.63
2022-12-18T17:30:23.643Z,27.15
2022-12-18T17:32:25.191Z,24.00
2022-12-18T17:34:26.810Z,30.02
2022-12-18T17:36:28.376Z,29.55
2022-12-18T17:38:30.178Z,27.27
2022-12-18T17:40:33.388Z,30.05
2022-12-18T17:42:36.659Z,27.02
2022-12-18T17:44:38.274Z,29.30
2022-12-18T17:46:39.917Z,28.90
2022-12-18T17:48:41.699Z,27.80
2022-12-18T17:50:43.340Z,27.52
2022-12-18T17:52:44.895Z,25.70
2022-12-18T17:54:46.529Z,29.63
2022-12-18T17:56:48.922Z,25.00
2022-12-18T17:58:51.995Z,29.75
2022-12-18T18:00:53.855Z,28.98
2022-12-18T18:04:57.115Z,24.40
2022-12-18T18:06:58.729Z,29.63
2022-12-18T18:09:00.327Z,25.40
2022-12-18T18:11:05.050Z,29.40
2022-12-18T18:13:17.447Z,29.17
2022-12-18T18:15:20.411Z,27.58
2022-12-18T18:17:21.969Z,28.42
2022-12-18T18:19:24.870Z,32.13
2022-12-18T18:21:26.950Z,32.05
2022-12-18T18:23:28.897Z,29.50
2022-12-18T18:25:30.579Z,29.75
2022-12-18T18:27:38.248Z,33.60
2022-12-18T18:29:40.311Z,28.65
2022-12-18T18:31:43.277Z,29.33
2022-12-18T18:33:45.039Z,32.53
2022-12-18T18:35:54.763Z,33.38
2022-12-18T18:37:56.512Z,30.48
2022-12-18T18:39:58.326Z,28.92
2022-12-18T18:41:59.932Z,32.65
2022-12-18T18:44:01.713Z,29.58
2022-12-18T18:46:05.285Z,35.05
2022-12-18T18:48:08.298Z,32.22
2022-12-18T18:50:10.212Z,26.70
2022-12-18T18:54:13.066Z,32.25
2022-12-18T18:56:45.336Z,29.30
2022-12-18T18:58:38.404Z,31.00
2022-12-18T19:02:41.729Z,29.98
2022-12-18T19:04:46.279Z,35.05
2022-12-18T19:06:48.568Z,30.00
2022-12-18T19:08:51.140Z,29.33
2022-12-18T19:10:57.678Z,43.70
2022-12-18T19:12:59.626Z,31.15
2022-12-18T19:15:01.356Z,32.28
2022-12-18T19:17:03.382Z,36.30
2022-12-18T19:19:06.232Z,29.05
2022-12-18T19:21:10.755Z,34.00
2022-12-18T19:23:12.300Z,35.58
2022-12-18T19:25:13.908Z,31.48
2022-12-18T19:27:15.454Z,38.83
2022-12-18T19:29:17.080Z,36.15
2022-12-18T19:31:24.443Z,37.83
2022-12-18T19:33:43.254Z,32.67
2022-12-18T19:35:45.391Z,43.08
2022-12-18T19:37:48.464Z,39.15
2022-12-18T19:39:50.279Z,35.55
2022-12-18T19:41:51.913Z,34.58
2022-12-18T19:43:53.880Z,32.65
2022-12-18T19:45:56.220Z,33.13
2022-12-18T19:48:02.624Z,34.63
2022-12-18T19:50:07.404Z,34.28
2022-12-18T19:52:09.420Z,33.20
2022-12-18T19:54:16.655Z,38.22
2022-12-18T19:56:21.611Z,36.55
2022-12-18T19:58:23.124Z,32.72
2022-12-18T20:00:26.357Z,28.70
2022-12-18T20:02:28.193Z,36.22
2022-12-18T20:04:30.070Z,31.38
2022-12-18T20:06:34.398Z,35.53
2022-12-18T20:08:36.000Z,36.53
2022-12-18T20:10:39.079Z,35.28
2022-12-18T20:12:40.693Z,36.78
2022-12-18T20:14:42.199Z,34.67
2022-12-18T20:16:44.469Z,32.33
2022-12-18T20:18:46.707Z,32.80
2022-12-18T20:20:48.655Z,31.83
2022-12-18T20:22:52.296Z,30.42
2022-12-18T20:24:53.950Z,30.35
2022-12-18T20:26:57.304Z,31.08
2022-12-18T20:28:59.767Z,29.98
2022-12-18T20:33:03.548Z,30.60
2022-12-18T20:37:07.140Z,30.25
2022-12-18T20:41:15.856Z,31.70
2022-12-18T20:43:18.995Z,31.10
2022-12-18T20:45:20.648Z,35.08
2022-12-18T20:47:22.171Z,30.73
2022-12-18T20:49:25.589Z,30.33
2022-12-18T20:51:27.323Z,30.88
2022-12-18T20:53:29.037Z,35.22
2022-12-18T20:55:30.871Z,28.27
2022-12-18T20:57:32.586Z,34.28
2022-12-18T20:59:35.590Z,30.52
2022-12-18T21:01:37.421Z,34.35
2022-12-18T21:03:42.928Z,30.92
2022-12-18T21:05:44.712Z,29.60
2022-12-18T21:07:46.392Z,33.70
2022-12-18T21:09:47.972Z,31.60
2022-12-18T21:11:49.824Z,32.05
2022-12-18T21:13:51.520Z,30.33
2022-12-18T21:15:54.802Z,34.08
2022-12-18T21:17:56.476Z,33.28
2022-12-18T21:21:59.889Z,31.40
2022-12-18T21:24:01.730Z,25.67
2022-12-18T21:26:15.966Z,31.92
2022-12-18T21:28:17.556Z,30.35
2022-12-18T21:30:19.130Z,31.05
2022-12-18T21:32:22.421Z,36.55
2022-12-18T21:34:28.793Z,31.80
2022-12-18T21:36:31.502Z,32.88
2022-12-18T21:38:33.477Z,27.80
2022-12-18T21:42:38.219Z,28.73
2022-12-18T21:44:41.980Z,34.55
2022-12-18T21:46:48.987Z,30.67
2022-12-18T21:48:56.142Z,31.83
2022-12-18T21:50:57.809Z,32.22
2022-12-18T21:52:59.648Z,32.47
2022-12-18T21:55:07.946Z,30.42
2022-12-18T21:57:10.775Z,32.67
2022-12-18T22:01:15.156Z,25.52
2022-12-18T22:03:19.245Z,35.22
2022-12-18T22:05:22.417Z,33.80
2022-12-18T22:07:23.925Z,36.80
2022-12-18T22:09:27.485Z,33.10
2022-12-18T22:11:29.156Z,31.65
2022-12-18T22:13:30.793Z,30.33
2022-12-18T22:15:32.868Z,31.90
2022-12-18T22:17:34.589Z,36.67
2022-12-18T22:19:42.511Z,32.65
2022-12-18T22:21:47.541Z,34.38
2022-12-18T22:23:52.679Z,30.90
2022-12-18T22:25:54.456Z,33.92
2022-12-18T22:27:56.068Z,32.30
2022-12-18T22:29:57.638Z,35.13
2022-12-18T22:31:59.310Z,31.17
2022-12-18T22:34:01.023Z,33.45
2022-12-18T22:36:05.601Z,34.50
2022-12-18T22:38:09.190Z,30.80
2022-12-18T22:40:23.721Z,29.15
2022-12-18T22:42:25.695Z,29.80
2022-12-18T22:44:27.263Z,30.20
2022-12-18T22:46:32.663Z,29.90
2022-12-18T22:48:34.233Z,24.50
2022-12-18T22:50:35.795Z,30.30
2022-12-18T22:52:37.385Z,32.17
2022-12-18T22:54:40.302Z,28.52
2022-12-18T22:56:42.594Z,31.63
2022-12-18T22:58:46.998Z,30.67
2022-12-18T23:00:48.533Z,31.30
2022-12-18T23:02:54.436Z,27.50
2022-12-18T23:04:59.362Z,29.38
2022-12-18T23:07:00.925Z,30.80
2022-12-18T23:09:02.431Z,30.60
2022-12-18T23:11:05.748Z,35.15
2022-12-18T23:13:07.413Z,26.27
2022-12-18T23:15:09.660Z,28.33
2022-12-18T23:17:11.274Z,30.17
2022-12-18T23:19:12.824Z,24.90
2022-12-18T23:21:17.550Z,29.20
2022-12-18T23:23:20.142Z,28.92
2022-12-18T23:25:21.882Z,24.85
2022-12-18T23:27:24.845Z,27.80
2022-12-18T23:29:26.712Z,29.48
2022-12-18T23:31:30.294Z,28.27
2022-12-18T23:33:31.947Z,25.73
2022-12-18T23:35:34.437Z,25.67
2022-12-18T23:37:58.693Z,27.80
2022-12-18T23:39:57.505Z,26.35
2022-12-18T23:41:59.089Z,31.08
2022-12-18T23:44:01.976Z,33.42
2022-12-18T23:46:09.455Z,33.70
2022-12-18T23:48:11.262Z,28.42
2022-12-18T23:50:12.819Z,28.42
2022-12-18T23:54:16.301Z,28.20
2022-12-18T23:56:20.785Z,27.83
2022-12-18T23:58:22.328Z,32.70
